Logo AVAMET
Benvolgut visitant, si us plau, ingressa Recuperar contrasenya

Peníscola Gran Hotel Peñiscola

Dades diàries. Acumulats / Últims 30 dies disponibles

Data Temperatura (°C) Humitat rel. (%) Pressió rel. (hPa) Vent (km/h) Precipitació
Mínima Mitjana Màxima Amplitud
tèrmica
Mínima Mitjana Màxima Mínima Mitjana Màxima Predom. Mitjana Ràfega
màxima
Total
(mm)
Índex-n
Mínima Mitjana Màxima Mínima Mitjana Màxima n
0 a 1
P0 max
mm 5'
Dades mensuals acumulades fins l'últim dia disponible
11/2019 6,8 11,7 17,3 15,7 15,6 19,6 25,6 18,8 1 53 87 993 1.007 1.017   53,0 1,6
Dades anuals acumulades fins l'últim dia disponible
2019 2,3 14,2 26,2 18,4 9,3 22,5 32,6 30,3 1 66 94 987 1.015 1.034   6,1 71,0 182,4
Últims 30 dies disponibles
18-11-2019 8,6     12,1     15,6 7,0 42 63 84 1.005 1.009 1.013 23,0 0,0
17-11-2019 8,9     12,9     16,9 8,0 42 60 78 1.006 1.009 1.011 27,0 0,4
16-11-2019 6,8     11,6     16,4 9,6 32 52 71 1.004 1.008 1.011 16,0 0,0
15-11-2019 7,4     12,1     16,8 9,4 36 52 67 996 1.000 1.004 13,0 0,0
14-11-2019 7,7     12,3     16,9 9,2 42 63 84 996 1.002 1.007 40,0 0,0
13-11-2019 11,7     15,3     19,0 7,3 1 44 86 1.002 1.006 1.009 32,0 0,8
12-11-2019 12,5     16,1     19,6 7,1 35 44 53 1.006 1.008 1.009 42,0 0,0
11-11-2019 11,1     14,9     18,7 7,6 36 46 56 1.008 1.010 1.011 40,0 0,0
10-11-2019 11,4     14,2     16,9 5,5 37 49 60 1.006 1.009 1.011 48,0 0,0
09-11-2019 12,3     14,6     16,8 4,5 41 53 64 1.009 1.012 1.014 50,0 0,0
08-11-2019 10,5     14,6     18,7 8,2 28 43 58 1.006 1.009 1.011 53,0 0,0
07-11-2019 9,8     14,9     20,0 10,2 46 58 69 1.005 1.008 1.010 19,0 0,0
06-11-2019 13,1     16,9     20,8 7,7 35 46 57 1.007 1.009 1.010 34,0 0,0
05-11-2019 14,4     18,1     21,7 7,3 32 52 72 1.001 1.005 1.008 34,0 0,4
04-11-2019 14,2     19,7     25,2 11,0 36 52 68 1.001 1.004 1.006 40,0 0,0
03-11-2019 16,8     20,2     23,7 6,9 30 49 67 993 1.000 1.006 50,0 0,0
02-11-2019 17,3     21,4     25,6 8,3 49 64 79 999 1.004 1.009 21,0 0,0
01-11-2019 16,2     20,2     24,2 8,0 56 72 87 1.009 1.013 1.017 18,0 0,0
31-10-2019 17,2     22,1     27,0 9,8 42 64 85 1.016 1.017 1.018 26,0 0,0
30-10-2019 14,5     18,1     21,7 7,2 67 77 86 1.016 1.018 1.019 19,0 0,0
29-10-2019 12,8     17,6     22,3 9,5 70 82 93 1.013 1.015 1.017 15,0 0,0
28-10-2019 13,7     16,9     20,2 6,5 77 85 92 1.014 1.016 1.018 18,0 0,0
27-10-2019 12,9     18,1     23,2 10,3 68 81 93 1.018 1.019 1.020 19,0 0,0
26-10-2019 12,5     18,1     23,7 11,2 69 79 88 1.018 1.020 1.021 15,0 0,0
25-10-2019 14,1     18,9     23,6 9,5 55 68 81 1.018 1.020 1.021 21,0 0,0
24-10-2019 10,4     16,7     23,0 12,6 42 61 79 1.007 1.013 1.018 26,0 0,0
23-10-2019 11,9     16,9     21,9 10,0 47 70 93 1.002 1.005 1.008 29,0 3,0 0,26 0,90
22-10-2019 13,2     14,9     16,6 3,4 1 47 92 1.002 1.009 1.016 32,0 0,42 1,40
21-10-2019 13,1     17,8     22,4 9,3 45 60 75 1.011 1.014 1.016 16,0 0,0
20-10-2019 14,2     18,8     23,4 9,2 48 67 86 1.002 1.007 1.011 34,0 0,6
Últims 13 mesos disponibles
10/2019 10,4 15,8 21,1 19,9 16,6 24,1 28,6 18,2 47 68 85 1.005 1.014 1.020 39,0
09/2019 15,3 19,4 22,5 23,4 23,9 27,3 31,4 16,1 54 71 85 1.008 1.016 1.024 0,1 53,0 45,6
08/2019 19,0 21,9 26,2 25,7 26,8 29,5 31,6 12,6 53 72 80 1.009 1.014 1.018 45,0 70,2
07/2019 19,1 22,0 25,2 26,0 27,6 30,0 32,6 13,5 47 67 82 1.004 1.012 1.019 37,0 0,2
06/2019 12,3 17,5 22,5 21,3 21,0 25,1 30,7 18,4 48 68 80 1.008 1.013 1.020 S 0,2 39,0 4,4
05/2019 8,3 13,9 17,3 17,9 18,2 21,9 28,0 19,7 34 63 83 1.003 1.013 1.022 48,0 26,4
04/2019 5,1 11,1 14,9 15,0 12,1 19,0 23,0 17,9 47 66 84 997 1.011 1.023 0,3 56,0 21,8
03/2019 5,7 9,0 13,2 13,7 14,4 18,3 21,4 15,7 46 61 81 1.008 1.021 1.028 48,0 5,6
02/2019 2,3 6,2 10,8 11,0 9,3 15,8 20,9 18,6 37 69 82 991 1.022 1.032 71,0 0,0
01/2019 2,9 6,4 10,4 11,0 12,7 15,6 20,2 17,3 40 60 84 999 1.016 1.029 60,0 1,8
12/2018 4,3 8,6 12,9 12,9 13,3 17,2 24,4 20,1 52 72 90 1.007 1.023 1.029 OSO 0,1 58,0 5,2
11/2018 7,1 10,9 15,7 14,8 15,1 18,7 21,3 14,2 52 74 89 1.000 1.013 1.022 61,0 100,4
10/2018 9,6 14,5 17,9 18,9 15,6 23,4 28,2 18,6 38 68 92 996 1.012 1.024 66,0 119,2
Tots els anys disponibles
2018 -1,8 14,1 26,7 18,0 7,4 22,0 35,1 36,9 35 68 93 991 1.014 1.033 0,5 74,0 371,8
2017 1,2 13,9 25,2 17,9 7,3 22,0 37,3 36,1 31 67 93 993 1.017 1.034 0,0 68,0 110,4
2016 1,9 14,1 24,9 18,1 10,3 22,0 32,4 30,5 36 66 92 992 1.016 1.035 63,0 274,2
2015 1,2 12,3 27,8 16,2 8,6 20,0 31,6 30,4 33 68 94 993 1.019 1.036 88,0 296,7
Temperatura (°C)
Humitat relativa (%)
Velocitat del vent i ràfega màxima (km/h)
Direcció del vent (°)
Pressió (hPa)
Precipitació (mm)
Nota sobre les dades: s'avisa a l'usuari de la provisionalitat i no oficialitat d'aquestes dades
Logo AVAMET blanc
Web allotjada a Sollutia
Llicència de Creative CommonsLa web d'AVAMET i els seus continguts estan subjectes a una llicència de
Reconeixement - No Comercial - Compartir igual
Últimes estacions: Xàbia - Alt de la Granadella (Soci), Villena - Sierra de Salinas (Soci), Sueca - Centre (Inforatge), Xàbia - La Plana (Soci), - - -